Terminal Aerodrome Forecast
Issued by NWS

Current Version | Previous Version | Graphics & Text | Print | Product List | Glossary On
Versions: 1 2 3 4 5 6 7 8 9 10 11 12 13 14 15 16 17 18 19 20 21 22 23 24 25 26 27 28 29
033
FTUS41 KILN 291852 AAB
TAFLCK
TAF AMD
KLCK 291852Z 2919/3018 21008KT P6SM VCTS BKN035CB
      TEMPO 2920/2923 5SM -TSRA BKN025CB
     FM300300 00000KT P6SM VCSH BKN035 OVC150
     FM300800 00000KT 4SM BR SCT002 BKN250
      TEMPO 3009/3012 2SM BR
     FM301300 23005KT P6SM BKN035=

USA.gov is the U.S. government's official web portal to all federal, state and local government web resources and services.